Malaysia Virtual Airlines Airport Information Service

Manchester Airport

ICAO: EGCC Country: United Kingdom, EU
Latitude: 53.3537 Longitude: -2.27495
Latest Arrival : MC12 (WMKK-EGCC) Latest Departure : MC11 (EGCC-WMKK)


WX CaptureLIVE
Data provided by noaa.gov | Fetched at 05:58:35

METAR : EGCC 290520Z AUTO 08003KT 0150 R23R/0600N FZFG OVC001 M04/M04 Q1014 NOSIG

TAF : EGCC 282301Z 2900/3006 VRB04KT 0100 FZFG VV/// TEMPO 2900/2909 1400 BR BKN002 PROB30 TEMPO 2900/2909 3000 SCT003 BECMG 2909/2912 8000 NSW FEW045 BECMG 2912/2915 9999 BECMG 2918/2921 26012KT TEMPO 2918/3006 8000 -RA BKN012 PROB30 TEMPO 2920/3006 4000 RA BKN006 PROB30 TEMPO 2921/3006 28018G28KT


Runway Data for EGCC
Data provided by openaviationdata.com

Runway ID Mag Var Hdg Length Elevation Surface ILS Freq ILS Id ILS Slope
05L -4 55° 9988 ft 257 ft Asphalt 109.5 IMM 3
05R -4 55° 9978 ft 257 ft Asphalt 111.55 IMC 3
23L -4 235° 9978 ft 257 ft Asphalt -- -- --
23R -4 235° 9988 ft 257 ft Asphalt 109.5 INN 3

Manchester Airport, United Kingdom, EU
Use only for reference purposes



Not for navigational purposes.